Time;durP1;ratioP1;P1;durP2;ratioP2;P2;SDS_P1;SDS_P2;PMS_P1;PMS_P2;Temp;Humidity;BMP_temperature;BMP_pressure;BME280_temperature;BME280_humidity;BME280_pressure;Samples;Min_cycle;Max_cycle;Signal;HPM_P1;HPM_P2
2023/07/14 00:00:17;;;;;;;16.25;11.85;;;;;;;14.94;100.00;101739.66;5053625;28;20135;-74
2023/07/14 00:02:47;;;;;;;11.98;10.68;;;;;;;14.92;100.00;101735.34;5052776;28;20048;-74
2023/07/14 00:05:19;;;;;;;17.85;11.20;;;;;;;14.94;100.00;101730.88;5052275;28;20033;-74
2023/07/14 00:07:50;;;;;;;16.52;11.73;;;;;;;14.88;100.00;101736.31;5055858;28;20029;-74
2023/07/14 00:10:21;;;;;;;13.25;11.00;;;;;;;14.85;100.00;101739.03;5054028;28;20025;-74
2023/07/14 00:12:48;;;;;;;14.27;11.43;;;;;;;14.83;100.00;101736.44;5053082;28;20063;-74
2023/07/14 00:15:15;;;;;;;14.15;11.35;;;;;;;14.79;100.00;101713.81;5053816;28;20385;-75
2023/07/14 00:17:41;;;;;;;13.25;11.25;;;;;;;14.86;100.00;101725.00;5052469;28;20028;-74
2023/07/14 00:20:30;;;;;;;11.98;10.60;;;;;;;14.86;100.00;101732.88;5053995;28;20021;-75
2023/07/14 00:22:57;;;;;;;14.68;10.85;;;;;;;14.85;100.00;101712.78;5052372;28;20021;-74
2023/07/14 00:25:24;;;;;;;13.75;10.50;;;;;;;14.85;100.00;101718.03;5052120;28;20028;-75
2023/07/14 00:27:51;;;;;;;18.13;10.57;;;;;;;14.80;100.00;101728.63;5052536;28;20021;-74
2023/07/14 00:30:23;;;;;;;14.38;10.57;;;;;;;14.80;100.00;101725.16;5051686;28;20484;-74
2023/07/14 00:32:50;;;;;;;13.18;10.43;;;;;;;14.79;100.00;101719.06;5053033;28;20130;-74
2023/07/14 00:35:22;;;;;;;12.70;10.65;;;;;;;14.75;100.00;101728.78;5053792;28;20025;-74
2023/07/14 00:37:49;;;;;;;12.35;10.30;;;;;;;14.75;100.00;101723.53;5057074;28;20025;-74
2023/07/14 00:40:25;;;;;;;15.85;11.82;;;;;;;14.84;100.00;101721.53;5058861;28;20107;-74
2023/07/14 00:42:57;;;;;;;14.45;11.60;;;;;;;14.86;100.00;101719.75;5056762;28;20032;-74
2023/07/14 00:45:26;;;;;;;11.60;10.32;;;;;;;14.89;100.00;101719.66;5049601;28;20025;-74
2023/07/14 00:48:03;;;;;;;12.85;10.73;;;;;;;14.92;100.00;101715.19;5052798;28;20384;-74
2023/07/14 00:50:37;;;;;;;12.25;10.95;;;;;;;14.89;100.00;101711.78;5052169;28;20356;-74
2023/07/14 00:53:13;;;;;;;14.13;10.70;;;;;;;14.87;100.00;101705.69;5049574;28;20036;-74
2023/07/14 00:55:43;;;;;;;12.25;10.98;;;;;;;14.85;100.00;101711.00;5048755;28;20061;-75
2023/07/14 00:58:18;;;;;;;12.68;11.35;;;;;;;14.87;100.00;101710.94;5051965;28;20037;-74
2023/07/14 01:01:02;;;;;;;13.50;11.68;;;;;;;14.90;100.00;101710.88;5048993;28;20155;-75
2023/07/14 01:03:27;;;;;;;13.73;11.85;;;;;;;14.95;100.00;101706.38;5052475;28;20035;-74
2023/07/14 01:05:53;;;;;;;17.77;12.73;;;;;;;14.92;100.00;101706.44;5053341;28;20029;-75
2023/07/14 01:08:21;;;;;;;15.25;13.02;;;;;;;14.94;100.00;101705.50;5059620;28;20028;-74
2023/07/14 01:10:48;;;;;;;14.73;12.50;;;;;;;14.94;100.00;101712.50;5051944;28;20358;-74
2023/07/14 01:13:13;;;;;;;14.73;12.50;;;;;;;14.97;100.00;101701.91;5056775;28;20024;-74
2023/07/14 01:15:40;;;;;;;15.85;13.23;;;;;;;14.97;100.00;101707.16;5051700;28;20052;-74
2023/07/14 01:18:08;;;;;;;14.38;12.52;;;;;;;14.98;100.00;101698.41;5045844;28;20091;-75
2023/07/14 01:20:38;;;;;;;16.55;12.77;;;;;;;14.98;100.00;101698.41;5052516;28;20029;-74
2023/07/14 01:23:17;;;;;;;17.50;13.38;;;;;;;15.04;100.00;101699.97;5055811;28;20024;-74
2023/07/14 01:25:57;;;;;;;18.85;13.65;;;;;;;15.03;100.00;101691.25;5053763;28;20163;-74
2023/07/14 01:28:22;;;;;;;16.23;13.57;;;;;;;15.01;100.00;101693.06;5044820;28;20032;-74
2023/07/14 01:30:47;;;;;;;16.83;13.20;;;;;;;15.03;100.00;101691.25;5051908;28;20040;-75
2023/07/14 01:33:15;;;;;;;15.27;12.82;;;;;;;15.00;100.00;101688.69;5052270;28;20021;-74
2023/07/14 01:35:45;;;;;;;16.25;13.63;;;;;;;15.05;100.00;101685.97;5051631;28;20036;-74
2023/07/14 01:38:11;;;;;;;15.40;13.02;;;;;;;15.07;100.00;101689.38;5051942;28;20491;-75
2023/07/14 01:40:36;;;;;;;17.00;14.27;;;;;;;15.05;100.00;101684.19;5051089;28;20029;-75
2023/07/14 01:43:06;;;;;;;18.42;13.18;;;;;;;15.11;100.00;101694.53;5050182;28;20104;-75
2023/07/14 01:45:44;;;;;;;16.08;13.25;;;;;;;15.07;100.00;101677.09;5052026;28;20052;-74
2023/07/14 01:48:13;;;;;;;14.80;13.18;;;;;;;15.03;100.00;101691.25;5051940;28;20151;-74
2023/07/14 01:51:01;;;;;;;18.00;14.10;;;;;;;14.94;100.00;101684.50;5050965;28;20062;-74
2023/07/14 01:53:34;;;;;;;18.70;14.13;;;;;;;14.83;100.00;101681.31;5053720;28;20029;-75
2023/07/14 01:56:04;;;;;;;15.85;13.75;;;;;;;14.83;100.00;101677.81;5046990;28;20082;-74
2023/07/14 01:58:57;;;;;;;14.55;13.05;;;;;;;14.79;100.00;101678.81;5054991;28;20052;-74
2023/07/14 02:01:24;;;;;;;18.40;14.18;;;;;;;14.80;100.00;101688.41;5049671;28;20029;-74
2023/07/14 02:03:53;;;;;;;17.45;14.35;;;;;;;14.78;100.00;101690.19;5047169;28;20357;-74
2023/07/14 02:06:18;;;;;;;16.70;14.25;;;;;;;14.69;100.00;101686.94;5052496;28;20033;-74
2023/07/14 02:08:44;;;;;;;15.23;13.50;;;;;;;14.70;100.00;101682.53;5049786;28;20499;-74
2023/07/14 02:11:19;;;;;;;15.65;14.02;;;;;;;14.67;100.00;101672.97;5050905;28;20033;-74
2023/07/14 02:13:46;;;;;;;16.38;13.55;;;;;;;14.64;100.00;101675.69;5050503;28;20020;-74
2023/07/14 02:16:14;;;;;;;16.80;14.57;;;;;;;14.55;100.00;101681.22;5051911;28;20156;-75
2023/07/14 02:18:41;;;;;;;16.88;14.90;;;;;;;14.55;100.00;101675.06;5050675;28;20488;-74
2023/07/14 02:21:08;;;;;;;17.15;15.38;;;;;;;14.49;100.00;101670.84;5050133;28;20033;-74
2023/07/14 02:23:34;;;;;;;17.80;14.35;;;;;;;14.46;100.00;101669.16;5051421;28;20091;-74
2023/07/14 02:26:14;;;;;;;16.13;14.20;;;;;;;14.45;100.00;101666.56;5054588;28;20469;-74
2023/07/14 02:28:40;;;;;;;16.70;14.55;;;;;;;14.39;100.00;101666.75;5054992;28;20130;-74
2023/07/14 02:31:23;;;;;;;19.27;14.38;;;;;;;14.29;100.00;101663.50;5053166;28;20064;-74
2023/07/14 02:33:50;;;;;;;21.50;14.75;;;;;;;14.29;100.00;101661.72;5052919;28;20045;-74
2023/07/14 02:36:25;;;;;;;16.58;13.75;;;;;;;14.21;100.00;101663.66;5054953;28;20044;-74
2023/07/14 02:38:55;;;;;;;15.93;13.77;;;;;;;14.18;100.00;101668.13;5056598;28;20048;-74
2023/07/14 02:41:24;;;;;;;17.88;14.27;;;;;;;14.08;100.00;101666.66;5052197;28;20028;-74
2023/07/14 02:43:58;;;;;;;16.92;14.25;;;;;;;14.04;100.00;101679.84;5055913;28;20021;-74
2023/07/14 02:46:30;;;;;;;17.50;14.18;;;;;;;14.02;100.00;101676.38;5051880;28;20029;-74
2023/07/14 02:48:56;;;;;;;17.58;15.05;;;;;;;13.96;100.00;101662.56;5055901;28;20021;-74
2023/07/14 02:51:21;;;;;;;16.30;14.60;;;;;;;13.91;100.00;101656.59;5055293;28;20047;-74
2023/07/14 02:53:46;;;;;;;16.95;15.02;;;;;;;14.09;100.00;101657.88;5059815;28;20282;-74
2023/07/14 02:56:12;;;;;;;18.95;14.55;;;;;;;14.16;100.00;101670.81;5056753;28;20021;-74
2023/07/14 02:58:38;;;;;;;17.25;14.85;;;;;;;14.20;100.00;101661.97;5055649;28;20035;-74
2023/07/14 03:01:04;;;;;;;18.70;14.40;;;;;;;14.25;100.00;101662.69;5053782;28;20029;-74
2023/07/14 03:03:33;;;;;;;16.20;13.65;;;;;;;14.31;100.00;101664.28;5054853;28;20029;-74
2023/07/14 03:05:59;;;;;;;19.38;14.10;;;;;;;14.36;100.00;101661.56;5055327;28;20464;-74
2023/07/14 03:08:26;;;;;;;17.42;13.75;;;;;;;14.36;100.00;101662.44;5057473;28;20056;-74
2023/07/14 03:10:56;;;;;;;16.27;13.52;;;;;;;14.47;100.00;101664.75;5057089;28;20417;-74
2023/07/14 03:13:22;;;;;;;15.43;13.82;;;;;;;14.55;100.00;101670.72;5054995;28;20490;-74
2023/07/14 03:15:48;;;;;;;15.60;13.82;;;;;;;14.56;100.00;101664.56;5054095;28;20139;-74
2023/07/14 03:18:14;;;;;;;14.80;13.30;;;;;;;14.58;100.00;101651.38;5054873;28;20045;-74
2023/07/14 03:20:40;;;;;;;16.13;13.25;;;;;;;14.61;100.00;101653.91;5053719;28;20090;-74
2023/07/14 03:23:06;;;;;;;15.95;12.57;;;;;;;14.62;100.00;101653.03;5054682;28;20061;-74
2023/07/14 03:25:33;;;;;;;13.80;12.05;;;;;;;14.58;100.00;101647.00;5058257;28;20429;-74
2023/07/14 03:28:00;;;;;;;13.38;12.05;;;;;;;14.62;100.00;101650.41;5053919;28;20048;-74
2023/07/14 03:30:26;;;;;;;18.23;11.77;;;;;;;14.65;100.00;101647.69;5053037;28;20049;-74
2023/07/14 03:32:51;;;;;;;13.10;11.70;;;;;;;14.60;100.00;101647.81;5054494;28;20381;-74
2023/07/14 03:35:18;;;;;;;14.60;11.20;;;;;;;14.61;100.00;101641.66;5053826;28;20047;-74
2023/07/14 03:37:45;;;;;;;13.40;10.68;;;;;;;14.59;100.00;101646.09;5050888;28;20074;-74
2023/07/14 03:40:10;;;;;;;14.25;10.68;;;;;;;14.58;100.00;101641.75;5061996;28;20083;-74
2023/07/14 03:42:38;;;;;;;11.30;10.07;;;;;;;14.50;100.00;101627.94;5058639;28;20424;-74
2023/07/14 03:45:04;;;;;;;12.57;10.60;;;;;;;14.53;100.00;101638.41;5058040;28;20025;-73
2023/07/14 03:47:29;;;;;;;14.98;10.48;;;;;;;14.45;100.00;101638.59;5054349;28;20039;-72
2023/07/14 03:49:55;;;;;;;13.52;9.63;;;;;;;14.44;100.00;101633.34;5049755;28;20472;-72
2023/07/14 03:52:20;;;;;;;11.05;9.90;;;;;;;14.40;100.00;101629.09;5055189;28;20374;-72
2023/07/14 03:54:45;;;;;;;10.77;9.38;;;;;;;14.40;100.00;101635.22;5056312;28;20104;-72
2023/07/14 03:57:11;;;;;;;11.27;9.27;;;;;;;14.44;100.00;101628.97;5052670;28;20068;-72
2023/07/14 03:59:36;;;;;;;13.00;9.82;;;;;;;14.43;100.00;101634.28;5053920;28;20044;-72
2023/07/14 04:02:01;;;;;;;11.55;9.40;;;;;;;14.40;100.00;101635.22;5053479;28;20276;-72
2023/07/14 04:04:28;;;;;;;10.43;9.27;;;;;;;14.38;100.00;101626.50;5053276;28;20025;-72
2023/07/14 04:06:54;;;;;;;11.70;8.95;;;;;;;14.41;100.00;101630.81;5048802;28;20460;-72
2023/07/14 04:09:20;;;;;;;11.18;8.88;;;;;;;14.43;100.00;101627.25;5049225;28;20499;-72
2023/07/14 04:11:45;;;;;;;10.75;9.13;;;;;;;14.45;100.00;101624.56;5056193;28;20024;-72
2023/07/14 04:14:11;;;;;;;9.68;8.57;;;;;;;14.48;100.00;101637.63;5052783;28;20032;-72
2023/07/14 04:16:36;;;;;;;11.80;8.23;;;;;;;14.49;100.00;101634.97;5052920;28;20074;-72
2023/07/14 04:19:05;;;;;;;10.73;8.35;;;;;;;14.49;100.00;101632.34;5053789;28;20029;-72
2023/07/14 04:21:31;;;;;;;11.35;8.57;;;;;;;14.44;100.00;101621.09;5054514;28;20567;-74
2023/07/14 04:23:57;;;;;;;11.60;7.70;;;;;;;14.51;100.00;101630.56;5047667;28;20104;-74
2023/07/14 04:26:25;;;;;;;10.70;8.32;;;;;;;14.49;100.00;101624.47;5053069;28;20021;-74
2023/07/14 04:28:50;;;;;;;10.98;8.30;;;;;;;14.55;100.00;101626.13;5052421;28;20534;-74
2023/07/14 04:31:16;;;;;;;9.82;8.70;;;;;;;14.56;100.00;101625.19;5052792;28;20045;-74
2023/07/14 04:33:46;;;;;;;9.10;7.97;;;;;;;14.55;100.00;101622.59;5052967;28;20036;-75
2023/07/14 04:36:13;;;;;;;12.02;8.30;;;;;;;14.60;100.00;101620.72;5047641;28;20025;-74
2023/07/14 04:38:41;;;;;;;12.52;8.13;;;;;;;14.50;100.00;101623.59;5052203;28;20025;-74
2023/07/14 04:41:07;;;;;;;11.85;7.65;;;;;;;14.45;100.00;101625.47;5053390;28;20040;-74
2023/07/14 04:43:33;;;;;;;11.23;7.45;;;;;;;14.43;100.00;101622.00;5052068;28;20025;-74
2023/07/14 04:45:59;;;;;;;15.07;7.78;;;;;;;14.43;100.00;101622.00;5052469;28;20033;-74
2023/07/14 04:48:24;;;;;;;11.50;7.53;;;;;;;14.38;100.00;101626.50;5052309;28;20472;-74
2023/07/14 04:50:51;;;;;;;13.20;7.47;;;;;;;14.33;100.00;101624.94;5055025;28;20116;-74
2023/07/14 04:53:17;;;;;;;12.48;7.97;;;;;;;14.25;100.00;101627.75;5053158;28;20064;-75
2023/07/14 04:55:45;;;;;;;10.38;7.75;;;;;;;14.21;100.00;101629.59;5055201;28;20041;-74
2023/07/14 04:58:13;;;;;;;10.80;7.60;;;;;;;14.20;100.00;101637.50;5052077;28;20126;-74
2023/07/14 05:00:41;;;;;;;13.65;7.75;;;;;;;14.14;100.00;101632.41;5052269;28;20036;-74
2023/07/14 05:03:06;;;;;;;11.43;7.82;;;;;;;14.11;100.00;101630.72;5052811;28;20586;-74
2023/07/14 05:05:32;;;;;;;9.70;7.82;;;;;;;14.19;100.00;101626.16;5054310;28;20032;-74
2023/07/14 05:07:59;;;;;;;11.13;7.65;;;;;;;14.31;100.00;101626.72;5055771;28;20029;-74
2023/07/14 05:10:25;;;;;;;10.50;7.78;;;;;;;14.31;100.00;101606.59;5058132;28;20064;-74
2023/07/14 05:12:56;;;;;;;10.27;7.72;;;;;;;14.45;100.00;101622.84;5057660;28;20106;-74
2023/07/14 05:15:23;;;;;;;8.75;7.75;;;;;;;14.49;100.00;101613.13;5052364;28;20036;-74
2023/07/14 05:17:49;;;;;;;11.57;7.45;;;;;;;14.56;100.00;101621.72;5052645;28;20045;-75
2023/07/14 05:20:16;;;;;;;14.50;7.30;;;;;;;14.61;100.00;101617.19;5049384;28;20029;-74
2023/07/14 05:22:44;;;;;;;12.20;7.38;;;;;;;14.68;100.00;101613.47;5058185;28;20021;-74
2023/07/14 05:25:10;;;;;;;13.70;7.78;;;;;;;14.79;100.00;101614.06;5056864;28;20063;-74
2023/07/14 05:27:36;;;;;;;11.23;7.88;;;;;;;14.90;100.00;101608.47;5051142;28;20025;-74
2023/07/14 05:30:02;;;;;;;9.77;7.57;;;;;;;15.04;100.00;101615.94;5051834;28;20045;-74
2023/07/14 05:32:28;;;;;;;10.63;7.22;;;;;;;15.10;100.00;101618.41;5052318;28;20017;-75
2023/07/14 05:34:53;;;;;;;9.57;7.18;;;;;;;15.15;100.00;101614.72;5051791;28;20036;-75
2023/07/14 05:37:19;;;;;;;11.05;7.50;;;;;;;15.27;100.00;101618.75;5056555;28;20147;-75
2023/07/14 05:39:45;;;;;;;14.80;7.38;;;;;;;15.34;100.00;101617.66;5060006;28;20040;-74
2023/07/14 05:42:11;;;;;;;11.90;7.15;;;;;;;15.35;100.00;101608.00;5056293;28;20420;-75
2023/07/14 05:44:37;;;;;;;10.40;7.35;;;;;;;15.36;100.00;101615.81;5051617;28;20108;-75
2023/07/14 05:47:04;;;;;;;10.55;7.00;;;;;;;15.37;100.00;101600.94;5052000;28;20036;-75
2023/07/14 05:49:29;;;;;;;12.15;7.43;;;;;;;15.40;100.00;101603.44;5051374;28;20025;-74
2023/07/14 05:51:55;;;;;;;10.15;6.65;;;;;;;15.42;100.00;101612.16;5055197;28;20361;-75
2023/07/14 05:54:21;;;;;;;10.27;6.95;;;;;;;15.42;100.00;101604.28;5055560;28;20035;-75
2023/07/14 05:56:46;;;;;;;10.68;6.75;;;;;;;15.42;100.00;101593.75;5050619;28;20082;-75
2023/07/14 05:59:12;;;;;;;11.23;7.63;;;;;;;15.57;100.00;101616.94;5050885;28;20473;-75
2023/07/14 06:01:38;;;;;;;8.57;6.32;;;;;;;15.63;100.00;101618.50;5051739;28;20040;-75
2023/07/14 06:04:05;;;;;;;10.52;6.68;;;;;;;15.62;100.00;101607.13;5051394;28;20104;-75
2023/07/14 06:06:31;;;;;;;11.00;7.03;;;;;;;15.69;100.00;101618.31;5050679;28;20025;-75
2023/07/14 06:08:57;;;;;;;11.90;7.22;;;;;;;15.77;100.00;101620.72;5049115;28;20451;-74
2023/07/14 06:11:23;;;;;;;12.30;6.72;;;;;;;15.87;100.00;101619.50;5051958;28;20392;-75
2023/07/14 06:13:48;;;;;;;10.52;6.97;;;;;;;15.94;100.00;101626.28;5051053;28;20021;-75
2023/07/14 06:16:14;;;;;;;10.35;6.47;;;;;;;16.05;100.00;101616.25;5051233;28;20025;-74
2023/07/14 06:18:39;;;;;;;8.98;6.40;;;;;;;16.12;100.00;101617.78;5051348;28;20025;-75
2023/07/14 06:21:05;;;;;;;13.23;6.22;;;;;;;16.28;100.00;101614.59;5050171;28;20119;-74
2023/07/14 06:23:30;;;;;;;11.35;6.72;;;;;;;16.34;100.00;101606.50;5050873;28;20025;-74
2023/07/14 06:25:57;;;;;;;9.20;6.13;;;;;;;16.44;100.00;101607.03;5050189;28;20022;-75
2023/07/14 06:28:23;;;;;;;12.00;6.05;;;;;;;16.44;100.00;101613.16;5051530;28;20063;-75
2023/07/14 06:30:56;;;;;;;9.75;6.15;;;;;;;16.58;100.00;101616.16;5050793;28;20112;-75
2023/07/14 06:33:22;;;;;;;9.93;5.60;;;;;;;16.70;100.00;101608.72;5052015;28;20032;-75
2023/07/14 06:35:47;;;;;;;11.13;5.80;;;;;;;16.89;100.00;101615.06;5052054;28;20167;-75
2023/07/14 06:38:12;;;;;;;9.57;6.00;;;;;;;16.97;100.00;101613.00;5050893;28;20124;-74
2023/07/14 06:40:38;;;;;;;11.05;5.53;;;;;;;17.08;100.00;101616.06;5053468;28;20025;-75
2023/07/14 06:43:07;;;;;;;7.85;5.38;;;;;;;17.21;100.00;101605.06;5047028;28;20044;-75
2023/07/14 06:45:33;;;;;;;8.15;5.20;;;;;;;17.20;100.00;101592.78;5050777;28;20025;-76
2023/07/14 06:47:58;;;;;;;7.43;5.15;;;;;;;17.36;100.00;101607.06;5047758;28;20131;-75
2023/07/14 06:50:24;;;;;;;6.63;5.10;;;;;;;17.51;100.00;101609.09;5053652;28;20013;-75
2023/07/14 06:52:51;;;;;;;9.02;5.38;;;;;;;17.66;100.00;101597.09;5054049;28;20021;-75
2023/07/14 06:55:16;;;;;;;12.30;5.32;;;;;;;17.93;100.00;101603.03;5050634;28;20090;-75
2023/07/14 06:57:42;;;;;;;7.90;4.75;;;;;;;18.15;100.00;101594.22;5050774;28;20428;-76
2023/07/14 07:00:12;;;;;;;9.98;4.90;;;;;;;18.30;100.00;101587.41;5051039;28;20477;-75
2023/07/14 07:02:38;;;;;;;8.43;4.63;;;;;;;18.28;100.00;101583.94;5050147;28;20025;-75
2023/07/14 07:05:06;;;;;;;8.13;4.35;;;;;;;18.31;100.00;101579.44;5052024;28;20040;-75
2023/07/14 07:07:32;;;;;;;6.22;4.15;;;;;;;18.57;100.00;101591.44;5049639;28;20064;-74
2023/07/14 07:09:57;;;;;;;7.38;4.28;;;;;;;18.61;100.00;101586.91;5052019;28;20075;-74
2023/07/14 07:12:23;;;;;;;6.45;3.83;;;;;;;18.50;100.00;101582.06;5053016;28;20033;-74
2023/07/14 07:14:49;;;;;;;7.13;3.88;;;;;;;18.41;100.00;101590.41;5053415;28;20101;-74
2023/07/14 07:17:15;;;;;;;9.00;4.00;;;;;;;18.29;100.00;101575.97;5064483;28;20029;-74
2023/07/14 07:19:40;;;;;;;7.13;3.60;;;;;;;18.35;100.00;101581.00;5053240;28;20100;-74
2023/07/14 07:22:07;;;;;;;6.38;3.53;;;;;;;18.41;100.00;101575.44;5053848;28;20033;-74
2023/07/14 07:24:33;;;;;;;4.05;3.38;;;;;;;18.43;100.00;101572.72;5054655;28;20039;-73
2023/07/14 07:26:58;;;;;;;4.82;3.10;;;;;;;18.52;100.00;101568.81;5052146;28;20389;-74
2023/07/14 07:29:24;;;;;;;7.35;3.30;;;;;;;18.47;100.00;101561.97;5054690;28;20039;-74
2023/07/14 07:31:49;;;;;;;6.63;3.28;;;;;;;18.48;100.00;101565.47;5051400;28;20512;-75
2023/07/14 07:34:15;;;;;;;8.68;3.50;;;;;;;18.51;100.00;101567.97;5053240;28;20495;-74
2023/07/14 07:36:40;;;;;;;8.30;3.53;;;;;;;18.42;100.00;101563.94;5054373;28;20086;-74
2023/07/14 07:39:06;;;;;;;5.78;2.80;;;;;;;18.39;100.00;101572.00;5053192;28;20520;-74
2023/07/14 07:41:31;;;;;;;9.45;3.55;;;;;;;18.38;100.00;101569.44;5053092;28;20520;-72
2023/07/14 07:43:57;;;;;;;7.40;3.38;;;;;;;18.51;100.00;101567.09;5054812;28;20024;-74
2023/07/14 07:46:22;;;;;;;4.47;2.83;;;;;;;18.68;100.00;101564.56;5053588;28;20724;-74
2023/07/14 07:48:48;;;;;;;7.47;3.45;;;;;;;18.86;100.00;101563.72;5053729;28;20526;-74
2023/07/14 07:51:14;;;;;;;4.72;3.20;;;;;;;18.89;98.38;101558.28;5054096;28;20052;-75
2023/07/14 07:53:40;;;;;;;6.53;3.40;;;;;;;18.95;93.68;101565.09;5063783;28;20388;-74
2023/07/14 07:56:05;;;;;;;8.52;3.33;;;;;;;19.04;97.55;101564.66;5053898;28;20025;-75
2023/07/14 07:58:31;;;;;;;4.60;2.70;;;;;;;19.16;95.74;101556.16;5051163;28;20026;-74
2023/07/14 08:01:04;;;;;;;7.63;2.90;;;;;;;19.23;96.95;101563.75;5052637;28;20474;-74
2023/07/14 08:03:31;;;;;;;5.90;2.83;;;;;;;19.13;98.63;101556.31;5051836;28;20543;-74
2023/07/14 08:06:05;;;;;;;5.03;2.97;;;;;;;19.12;98.13;101556.34;5054107;28;20025;-74
2023/07/14 08:08:31;;;;;;;5.22;2.88;;;;;;;19.13;96.99;101544.88;5051423;28;20021;-74
2023/07/14 08:10:56;;;;;;;5.80;2.95;;;;;;;19.10;97.83;101534.44;5053653;28;20059;-73
2023/07/14 08:13:25;;;;;;;7.07;2.85;;;;;;;19.23;95.39;101554.06;5054089;28;20067;-74
2023/07/14 08:15:52;;;;;;;5.20;2.80;;;;;;;19.21;93.89;101561.22;5041217;28;20032;-74
2023/07/14 08:18:17;;;;;;;6.47;2.67;;;;;;;19.29;95.36;101555.53;5047297;28;20043;-74
2023/07/14 08:20:43;;;;;;;4.00;2.90;;;;;;;19.32;91.93;101548.31;5052997;28;20033;-73
2023/07/14 08:23:13;;;;;;;6.32;2.90;;;;;;;19.44;96.62;101546.88;5058139;28;20025;-74
2023/07/14 08:25:39;;;;;;;4.53;2.85;;;;;;;19.63;93.45;101547.69;5050841;28;20021;-73
2023/07/14 08:28:04;;;;;;;5.28;2.65;;;;;;;19.69;88.86;101546.53;5056700;28;20032;-73
2023/07/14 08:30:33;;;;;;;6.22;2.83;;;;;;;19.77;91.35;101549.63;5051080;28;20049;-74
2023/07/14 08:32:58;;;;;;;4.90;2.85;;;;;;;19.81;87.51;101552.97;5053667;28;20116;-74
2023/07/14 08:35:24;;;;;;;3.83;2.65;;;;;;;19.84;89.63;101544.88;5049637;28;20396;-75
2023/07/14 08:37:50;;;;;;;4.15;2.65;;;;;;;19.94;85.33;101551.41;5046353;28;20443;-74
2023/07/14 08:40:26;;;;;;;4.68;2.78;;;;;;;20.08;83.80;101542.78;5051490;28;20060;-75
2023/07/14 08:43:20;;;;;;;5.28;2.63;;;;;;;20.20;82.84;101549.22;5052146;28;20036;-74
2023/07/14 08:45:54;;;;;;;3.92;2.60;;;;;;;20.13;85.37;101545.19;5052335;28;20025;-75
2023/07/14 08:48:31;;;;;;;5.85;3.15;;;;;;;20.06;83.68;101544.66;5053535;28;20028;-75
2023/07/14 08:51:04;;;;;;;4.93;3.05;;;;;;;20.14;84.49;101542.44;5052644;28;20028;-74
2023/07/14 08:53:32;;;;;;;6.57;3.25;;;;;;;20.23;78.82;101536.66;5045737;28;20036;-74
2023/07/14 08:56:03;;;;;;;5.28;2.67;;;;;;;20.40;79.11;101533.13;5053533;28;20053;-75
2023/07/14 08:58:34;;;;;;;6.82;2.95;;;;;;;20.55;79.73;101536.78;5051861;28;20029;-75
2023/07/14 09:01:14;;;;;;;7.70;3.10;;;;;;;20.61;80.70;101530.31;5053100;28;20497;-74
2023/07/14 09:03:46;;;;;;;4.65;2.60;;;;;;;20.75;78.54;101528.59;5052793;28;20028;-74
2023/07/14 09:06:17;;;;;;;6.97;2.85;;;;;;;20.84;78.72;101519.28;5052673;28;20029;-74
2023/07/14 09:08:44;;;;;;;4.38;2.65;;;;;;;20.96;76.39;101523.91;5052646;28;20036;-74
2023/07/14 09:11:31;;;;;;;5.15;3.10;;;;;;;21.12;77.01;101525.66;5052871;28;20036;-74
2023/07/14 09:14:20;;;;;;;3.72;2.97;;;;;;;21.07;74.02;101523.28;5052397;28;20111;-74
2023/07/14 09:17:24;;;;;;;4.50;2.90;;;;;;;21.43;78.53;101515.03;5051067;28;20186;-74
2023/07/14 09:20:02;;;;;;;;;;;;;;;21.82;79.03;101500.34;5050895;28;20131;-74
2023/07/14 09:22:49;;;;;;;4.47;2.47;;;;;;;21.70;70.99;101509.91;5052748;28;19967;-74
2023/07/14 09:25:25;;;;;;;3.00;2.42;;;;;;;21.42;69.78;101499.22;5049477;28;20036;-74
2023/07/14 09:27:51;;;;;;;5.85;2.60;;;;;;;21.54;69.21;101495.84;5051869;28;20063;-74
2023/07/14 09:30:19;;;;;;;5.22;2.70;;;;;;;21.70;72.49;101501.94;5052496;28;20488;-74
2023/07/14 09:32:49;;;;;;;4.40;2.80;;;;;;;21.95;69.91;101497.81;5052055;28;20119;-74
2023/07/14 09:35:20;;;;;;;6.35;2.83;;;;;;;22.19;64.54;101493.69;5051712;28;20106;-74
2023/07/14 09:37:53;;;;;;;5.80;2.75;;;;;;;22.47;67.11;101491.97;5052280;28;20025;-74
2023/07/14 09:40:24;;;;;;;;;;;;;;;22.74;72.38;101489.34;5044945;28;20044;-74
2023/07/14 09:42:53;;;;;;;4.18;2.63;;;;;;;22.84;70.07;101487.78;5052330;28;19924;-74
2023/07/14 09:45:23;;;;;;;6.25;2.83;;;;;;;23.05;69.32;101480.28;5044639;28;20016;-74
2023/07/14 09:48:13;;;;;;;3.90;2.65;;;;;;;23.36;65.29;101470.25;5051393;28;20508;-74
2023/07/14 09:50:52;;;;;;;6.32;3.17;;;;;;;23.41;61.18;101473.41;5046154;28;20032;-74
2023/07/14 09:53:17;;;;;;;6.00;3.13;;;;;;;23.46;61.38;101470.47;5052277;28;20029;-72
2023/07/14 09:55:57;;;;;;;5.38;2.72;;;;;;;23.41;66.31;101468.09;5051345;28;20052;-72
2023/07/14 09:58:28;;;;;;;4.93;2.70;;;;;;;23.24;61.51;101471.06;5051790;28;20037;-72
2023/07/14 10:00:57;;;;;;;5.80;2.95;;;;;;;23.07;61.54;101467.72;5052083;28;20017;-72
2023/07/14 10:03:30;;;;;;;4.28;2.67;;;;;;;23.05;64.71;101466.09;5050963;28;20021;-72
2023/07/14 10:06:03;;;;;;;4.15;2.75;;;;;;;22.99;67.07;101459.41;5052294;28;20064;-72
2023/07/14 10:08:33;;;;;;;6.97;2.95;;;;;;;23.05;62.51;101460.78;5051874;28;20649;-73
2023/07/14 10:11:11;;;;;;;5.72;2.75;;;;;;;23.04;62.58;101448.44;5047570;28;20041;-72
2023/07/14 10:13:37;;;;;;;3.67;2.80;;;;;;;23.05;65.11;101440.38;5049358;28;20066;-71
2023/07/14 10:16:32;;;;;;;4.28;2.53;;;;;;;23.23;65.13;101432.13;5045039;28;20037;-72
2023/07/14 10:19:11;;;;;;;5.00;2.60;;;;;;;23.50;63.71;101435.56;5044046;28;20401;-72
2023/07/14 10:21:37;;;;;;;4.35;2.50;;;;;;;23.54;57.71;101428.22;5050591;28;20435;-71
2023/07/14 10:24:13;;;;;;;5.07;2.60;;;;;;;23.68;59.37;101436.16;5049176;28;20541;-71
2023/07/14 10:26:49;;;;;;;5.65;2.67;;;;;;;23.71;60.73;101427.09;5049302;28;20488;-71
2023/07/14 10:29:17;;;;;;;4.95;2.30;;;;;;;23.86;59.26;101427.81;5052035;28;20067;-71
2023/07/14 10:31:57;;;;;;;4.95;2.40;;;;;;;24.10;57.18;101423.44;5050071;28;20766;-72
2023/07/14 10:34:56;;;;;;;5.95;2.83;;;;;;;24.47;61.96;101410.16;5050443;28;20103;-72
2023/07/14 10:37:26;;;;;;;3.92;2.47;;;;;;;25.00;61.92;101407.97;5048529;28;20480;-74
2023/07/14 10:39:59;;;;;;;2.90;2.35;;;;;;;25.56;56.53;101393.94;5048585;28;20463;-74
2023/07/14 10:42:29;;;;;;;5.70;2.25;;;;;;;26.03;53.52;101392.03;5051388;28;20025;-74
2023/07/14 10:44:56;;;;;;;5.00;2.72;;;;;;;26.15;48.74;101388.38;5050357;28;20033;-74
2023/07/14 10:47:27;;;;;;;5.07;2.40;;;;;;;26.19;50.41;101383.63;5055773;28;20024;-74
2023/07/14 10:49:59;;;;;;;4.70;2.50;;;;;;;25.95;50.25;101383.81;5053253;28;20473;-72
2023/07/14 10:52:31;;;;;;;4.07;2.45;;;;;;;25.80;50.01;101392.06;5046173;28;20396;-72
2023/07/14 10:55:03;;;;;;;4.28;2.40;;;;;;;25.56;50.17;101377.94;5054459;28;20373;-72
2023/07/14 10:57:28;;;;;;;4.07;2.45;;;;;;;25.24;51.47;101383.94;5045998;28;20123;-72
2023/07/14 11:00:11;;;;;;;4.07;2.73;;;;;;;24.82;55.63;101377.34;5054179;28;20045;-72
2023/07/14 11:02:41;;;;;;;6.17;2.40;;;;;;;24.36;53.06;101378.94;5053090;28;20291;-72
2023/07/14 11:05:14;;;;;;;5.45;2.28;;;;;;;24.15;57.47;101388.47;5050975;28;20044;-72
2023/07/14 11:07:40;;;;;;;5.75;2.40;;;;;;;24.36;53.09;101376.28;5054756;28;20021;-72
2023/07/14 11:10:39;;;;;;;4.10;2.22;;;;;;;24.77;53.76;101367.03;5054023;28;20035;-71
2023/07/14 11:13:31;;;;;;;3.72;2.60;;;;;;;25.17;50.40;101362.22;5048903;28;20471;-72
2023/07/14 11:16:03;;;;;;;4.32;2.50;;;;;;;25.63;51.41;101344.44;5039676;28;20433;-72
2023/07/14 11:18:41;;;;;;;;;;;;;;;25.82;51.12;101330.50;5053079;28;20041;-71
2023/07/14 11:21:23;;;;;;;5.28;2.70;;;;;;;25.60;51.99;101334.00;5054312;28;19921;-72
2023/07/14 11:23:59;;;;;;;6.28;2.70;;;;;;;25.36;52.08;101334.97;5057531;28;20123;-72